Impacts METAR Board INFO
IDs:

KCLT - Charlotte/Douglas In, NC, US

Updated at: 2110 UTC 21 Nov 2017
Potential Impact None Slight Moderate High
Time21/09Z 21/10Z 21/11Z 21/12Z 21/13Z 21/14Z 21/15Z 21/16Z 21/17Z 21/18Z 21/19Z 21/20Z 21/21Z
VIS10 10 10 10 10 10 10 10 10 10 10 10 10
CIG38 27 220 220 220 200 200 70 70 75 80 80 85
CoverBKNBKNBKNBKNOVCOVCOVCOVCOVCOVCOVCOVCOVC
FltCatVFRMVFRVFRVFRVFRVFRVFRVFRVFRVFRVFRVFRVFR
WX--------------------------
WDir1401500000160160180027000
WSpd3 3 0 0 0 0 5 4 5 3 3 0 0
WGst-- -- -- -- -- -- -- -- -- -- -- -- --
Raw hourly METARs
KCLT 210852Z 14003KT 10SM BKN038 BKN250 04/M01 A3021 RMK AO2 SLP231 T00441006 58006
KCLT 210952Z 15003KT 10SM BKN027 BKN031 BKN250 06/00 A3020 RMK AO2 SLP227 T00560000
KCLT 211052Z 00000KT 10SM SCT027 BKN220 06/00 A3020 RMK AO2 SLP226 T00560000
KCLT 211152Z 00000KT 10SM BKN220 06/00 A3020 RMK AO2 SLP226 T00560000 10056 20028 56005
KCLT 211252Z 00000KT 10SM FEW028 FEW055 OVC220 06/03 A3021 RMK AO2 SLP231 T00560028
KCLT 211352Z 00000KT 10SM SCT060 BKN200 OVC250 10/02 A3020 RMK AO2 SLP226 T01000022
KCLT 211452Z 16005KT 10SM SCT070 BKN200 OVC250 11/02 A3019 RMK AO2 SLP224 T01060022 58001
KCLT 211552Z 16004KT 10SM FEW035 BKN070 OVC200 13/04 A3018 RMK AO2 SLP220 T01280039
KCLT 211652Z 18005KT 10SM FEW035 BKN070 OVC200 14/07 A3015 RMK AO2 SLP208 T01440067
KCLT 211752Z VRB03KT 10SM FEW035 BKN075 OVC200 16/07 A3011 RMK AO2 SLP196 T01560067 10156 20039 58027
KCLT 211852Z 27003KT 10SM FEW050 BKN080 OVC200 16/08 A3009 RMK AO2 SLP190 T01560078
KCLT 211952Z 00000KT 10SM FEW065 BKN080 OVC200 16/08 A3009 RMK AO2 SLP189 T01610083
KCLT 212052Z 00000KT 10SM SCT065 BKN085 OVC200 16/08 A3008 RMK AO2 SLP185 T01610083 56010